sensor_id;sensor_type;location;lat;lon;timestamp;pressure;altitude;pressure_sealevel;temperature;humidity
13478;BME280;12598;62.382;17.344;2022-11-22T00:00:15;101312.50;;;17.83;22.72
13478;BME280;12598;62.382;17.344;2022-11-22T00:01:17;101327.91;;;17.90;22.70
13478;BME280;12598;62.382;17.344;2022-11-22T00:02:19;101321.72;;;17.90;22.67
13478;BME280;12598;62.382;17.344;2022-11-22T00:03:21;101326.34;;;17.88;22.80
13478;BME280;12598;62.382;17.344;2022-11-22T00:04:23;101325.38;;;17.89;22.83
13478;BME280;12598;62.382;17.344;2022-11-22T00:05:25;101309.38;;;17.78;22.97
13478;BME280;12598;62.382;17.344;2022-11-22T00:06:26;101325.50;;;17.87;23.05
13478;BME280;12598;62.382;17.344;2022-11-22T00:07:28;101317.72;;;17.84;22.98
13478;BME280;12598;62.382;17.344;2022-11-22T00:08:30;101325.50;;;17.87;22.75
13478;BME280;12598;62.382;17.344;2022-11-22T00:09:33;101315.66;;;17.88;22.88
13478;BME280;12598;62.382;17.344;2022-11-22T00:10:35;101327.19;;;17.88;22.96
13478;BME280;12598;62.382;17.344;2022-11-22T00:11:37;101315.44;;;17.80;22.86
13478;BME280;12598;62.382;17.344;2022-11-22T00:12:39;101322.00;;;17.87;22.84
13478;BME280;12598;62.382;17.344;2022-11-22T00:13:41;101324.19;;;17.82;22.49
13478;BME280;12598;62.382;17.344;2022-11-22T00:14:42;101322.09;;;17.85;22.90
13478;BME280;12598;62.382;17.344;2022-11-22T00:15:44;101322.09;;;17.85;22.83
13478;BME280;12598;62.382;17.344;2022-11-22T00:16:46;101329.16;;;17.86;22.74
13478;BME280;12598;62.382;17.344;2022-11-22T00:17:48;101333.66;;;17.86;22.79
13478;BME280;12598;62.382;17.344;2022-11-22T00:18:50;101328.31;;;17.86;22.68
13478;BME280;12598;62.382;17.344;2022-11-22T00:19:51;101322.50;;;17.81;22.81
13478;BME280;12598;62.382;17.344;2022-11-22T00:20:54;101325.66;;;17.86;22.65
13478;BME280;12598;62.382;17.344;2022-11-22T00:21:55;101322.09;;;17.85;22.83
13478;BME280;12598;62.382;17.344;2022-11-22T00:22:57;101319.53;;;17.84;22.92
13478;BME280;12598;62.382;17.344;2022-11-22T00:23:59;101303.47;;;17.75;22.88
13478;BME280;12598;62.382;17.344;2022-11-22T00:25:01;101321.25;;;17.85;22.66
13478;BME280;12598;62.382;17.344;2022-11-22T00:26:02;101324.91;;;17.84;22.88
13478;BME280;12598;62.382;17.344;2022-11-22T00:27:04;101327.56;;;17.84;22.64
13478;BME280;12598;62.382;17.344;2022-11-22T00:28:06;101306.84;;;17.77;22.62
13478;BME280;12598;62.382;17.344;2022-11-22T00:29:08;101329.41;;;17.83;22.76
13478;BME280;12598;62.382;17.344;2022-11-22T00:30:10;101324.19;;;17.82;22.77
13478;BME280;12598;62.382;17.344;2022-11-22T00:31:12;101317.84;;;17.83;22.58
13478;BME280;12598;62.382;17.344;2022-11-22T00:32:13;101306.84;;;17.77;22.64
13478;BME280;12598;62.382;17.344;2022-11-22T00:33:15;101300.66;;;17.76;22.58
13478;BME280;12598;62.382;17.344;2022-11-22T00:34:17;101297.25;;;17.74;22.88
13478;BME280;12598;62.382;17.344;2022-11-22T00:35:19;101316.16;;;17.82;22.50
13478;BME280;12598;62.382;17.344;2022-11-22T00:36:21;101305.47;;;17.82;22.91
13478;BME280;12598;62.382;17.344;2022-11-22T00:37:23;101313.47;;;17.82;22.54
13478;BME280;12598;62.382;17.344;2022-11-22T00:38:25;101313.47;;;17.82;22.61
13478;BME280;12598;62.382;17.344;2022-11-22T00:39:27;101302.78;;;17.82;22.88
13478;BME280;12598;62.382;17.344;2022-11-22T00:40:29;101305.47;;;17.82;22.71
13478;BME280;12598;62.382;17.344;2022-11-22T00:41:31;101310.81;;;17.82;22.60
13478;BME280;12598;62.382;17.344;2022-11-22T00:42:32;101308.13;;;17.82;22.84
13478;BME280;12598;62.382;17.344;2022-11-22T00:43:34;101299.66;;;17.77;22.78
13478;BME280;12598;62.382;17.344;2022-11-22T00:44:36;101308.28;;;17.81;22.84
13478;BME280;12598;62.382;17.344;2022-11-22T00:45:41;101286.81;;;17.71;22.78
13478;BME280;12598;62.382;17.344;2022-11-22T00:46:43;101312.50;;;17.83;22.84
13478;BME280;12598;62.382;17.344;2022-11-22T00:47:44;101309.97;;;17.82;22.92
13478;BME280;12598;62.382;17.344;2022-11-22T00:48:46;101304.63;;;17.82;22.60
13478;BME280;12598;62.382;17.344;2022-11-22T00:49:48;101312.50;;;17.83;22.66
13478;BME280;12598;62.382;17.344;2022-11-22T00:50:50;101312.78;;;17.80;22.57
13478;BME280;12598;62.382;17.344;2022-11-22T00:51:51;101306.72;;;17.78;23.01
13478;BME280;12598;62.382;17.344;2022-11-22T00:52:53;101312.78;;;17.80;23.03
13478;BME280;12598;62.382;17.344;2022-11-22T00:53:55;101306.59;;;17.80;22.69
13478;BME280;12598;62.382;17.344;2022-11-22T00:54:57;101304.91;;;17.79;22.84
13478;BME280;12598;62.382;17.344;2022-11-22T00:55:58;101305.72;;;17.79;23.00
13478;BME280;12598;62.382;17.344;2022-11-22T00:57:00;101300.91;;;17.73;22.82
13478;BME280;12598;62.382;17.344;2022-11-22T00:58:02;101318.28;;;17.79;23.04
13478;BME280;12598;62.382;17.344;2022-11-22T00:59:03;101290.75;;;17.67;22.79
13478;BME280;12598;62.382;17.344;2022-11-22T01:00:06;101320.09;;;17.78;23.02
13478;BME280;12598;62.382;17.344;2022-11-22T01:01:07;101313.75;;;17.79;22.70
13478;BME280;12598;62.382;17.344;2022-11-22T01:02:09;101325.44;;;17.78;22.99
13478;BME280;12598;62.382;17.344;2022-11-22T01:03:12;101318.38;;;17.77;22.81
13478;BME280;12598;62.382;17.344;2022-11-22T01:04:13;101316.44;;;17.79;23.01
13478;BME280;12598;62.382;17.344;2022-11-22T01:05:15;101319.25;;;17.78;23.06
13478;BME280;12598;62.382;17.344;2022-11-22T01:06:18;101323.63;;;17.79;22.80
13478;BME280;12598;62.382;17.344;2022-11-22T01:07:20;101326.28;;;17.79;22.95
13478;BME280;12598;62.382;17.344;2022-11-22T01:08:22;101309.19;;;17.70;22.88
13478;BME280;12598;62.382;17.344;2022-11-22T01:09:24;101328.25;;;17.77;22.95
13478;BME280;12598;62.382;17.344;2022-11-22T01:10:26;101325.44;;;17.78;22.63
13478;BME280;12598;62.382;17.344;2022-11-22T01:11:27;101297.59;;;17.60;23.13
13478;BME280;12598;62.382;17.344;2022-11-22T01:12:29;101322.03;;;17.76;23.13
13478;BME280;12598;62.382;17.344;2022-11-22T01:13:31;101331.75;;;17.77;23.23
13478;BME280;12598;62.382;17.344;2022-11-22T01:14:33;101330.06;;;17.76;23.02
13478;BME280;12598;62.382;17.344;2022-11-22T01:15:35;101323.75;;;17.77;23.28
13478;BME280;12598;62.382;17.344;2022-11-22T01:16:37;101327.41;;;17.76;23.29
13478;BME280;12598;62.382;17.344;2022-11-22T01:17:39;101318.09;;;17.71;23.12
13478;BME280;12598;62.382;17.344;2022-11-22T01:18:41;101326.41;;;17.77;23.04
13478;BME280;12598;62.382;17.344;2022-11-22T01:19:43;101322.91;;;17.77;23.00
13478;BME280;12598;62.382;17.344;2022-11-22T01:20:45;101322.03;;;17.76;23.01
13478;BME280;12598;62.382;17.344;2022-11-22T01:21:46;101322.91;;;17.77;22.97
13478;BME280;12598;62.382;17.344;2022-11-22T01:22:48;101325.69;;;17.75;22.82
13478;BME280;12598;62.382;17.344;2022-11-22T01:23:50;101324.88;;;17.75;23.17
13478;BME280;12598;62.382;17.344;2022-11-22T01:24:52;101324.88;;;17.75;22.98
13478;BME280;12598;62.382;17.344;2022-11-22T01:25:54;101325.69;;;17.75;22.99
13478;BME280;12598;62.382;17.344;2022-11-22T01:26:56;101322.03;;;17.76;23.35
13478;BME280;12598;62.382;17.344;2022-11-22T01:27:57;101324.72;;;17.76;23.42
13478;BME280;12598;62.382;17.344;2022-11-22T01:28:59;101321.47;;;17.73;23.16
13478;BME280;12598;62.382;17.344;2022-11-22T01:30:02;101320.34;;;17.75;23.29
13478;BME280;12598;62.382;17.344;2022-11-22T01:31:04;101302.41;;;17.66;23.48
13478;BME280;12598;62.382;17.344;2022-11-22T01:32:06;101318.66;;;17.74;23.21
13478;BME280;12598;62.382;17.344;2022-11-22T01:33:08;101317.81;;;17.74;23.26
13478;BME280;12598;62.382;17.344;2022-11-22T01:34:10;101323.03;;;17.75;23.42
13478;BME280;12598;62.382;17.344;2022-11-22T01:35:12;101331.91;;;17.76;23.27
13478;BME280;12598;62.382;17.344;2022-11-22T01:36:14;101320.34;;;17.75;23.01
13478;BME280;12598;62.382;17.344;2022-11-22T01:37:16;101326.69;;;17.74;23.25
13478;BME280;12598;62.382;17.344;2022-11-22T01:38:18;101324.00;;;17.74;23.28
13478;BME280;12598;62.382;17.344;2022-11-22T01:39:20;101325.69;;;17.75;23.20
13478;BME280;12598;62.382;17.344;2022-11-22T01:40:21;101319.50;;;17.75;23.16
13478;BME280;12598;62.382;17.344;2022-11-22T01:41:23;101323.03;;;17.75;23.14
13478;BME280;12598;62.382;17.344;2022-11-22T01:42:57;101322.91;;;17.77;23.33
13478;BME280;12598;62.382;17.344;2022-11-22T01:44:28;101324.66;;;17.87;22.99
13478;BME280;12598;62.382;17.344;2022-11-22T01:46:36;101321.66;;;17.81;23.17
13478;BME280;12598;62.382;17.344;2022-11-22T01:47:38;101328.00;;;17.80;23.28
13478;BME280;12598;62.382;17.344;2022-11-22T01:48:45;101326.28;;;17.79;23.07
13478;BME280;12598;62.382;17.344;2022-11-22T01:50:10;101318.53;;;17.76;23.50
13478;BME280;12598;62.382;17.344;2022-11-22T01:51:17;101326.03;;;17.82;23.09
13478;BME280;12598;62.382;17.344;2022-11-22T01:52:24;101318.28;;;17.79;22.94
13478;BME280;12598;62.382;17.344;2022-11-22T01:53:34;101325.44;;;17.78;23.44
13478;BME280;12598;62.382;17.344;2022-11-22T01:54:39;101329.09;;;17.77;23.34
13478;BME280;12598;62.382;17.344;2022-11-22T01:55:41;101321.06;;;17.77;23.21
13478;BME280;12598;62.382;17.344;2022-11-22T01:56:48;101323.03;;;17.75;23.34
13478;BME280;12598;62.382;17.344;2022-11-22T01:57:51;101321.31;;;17.74;23.32
13478;BME280;12598;62.382;17.344;2022-11-22T01:58:58;101316.97;;;17.73;23.08
13478;BME280;12598;62.382;17.344;2022-11-22T02:00:05;101317.81;;;17.74;23.07
13478;BME280;12598;62.382;17.344;2022-11-22T02:01:15;101329.09;;;17.77;23.33
13478;BME280;12598;62.382;17.344;2022-11-22T02:02:17;101324.00;;;17.74;23.33
13478;BME280;12598;62.382;17.344;2022-11-22T02:03:19;101317.94;;;17.72;23.23
13478;BME280;12598;62.382;17.344;2022-11-22T02:04:23;101316.13;;;17.73;23.29
13478;BME280;12598;62.382;17.344;2022-11-22T02:05:30;101318.91;;;17.71;23.31
13478;BME280;12598;62.382;17.344;2022-11-22T02:06:41;101315.25;;;17.72;23.14
13478;BME280;12598;62.382;17.344;2022-11-22T02:08:11;101317.41;;;17.78;23.32
13478;BME280;12598;62.382;17.344;2022-11-22T02:09:15;101317.41;;;17.78;23.06
13478;BME280;12598;62.382;17.344;2022-11-22T02:10:17;101322.03;;;17.76;23.05
13478;BME280;12598;62.382;17.344;2022-11-22T02:11:21;101303.13;;;17.68;22.93
13478;BME280;12598;62.382;17.344;2022-11-22T02:12:27;101318.91;;;17.71;23.06
13478;BME280;12598;62.382;17.344;2022-11-22T02:13:33;101311.88;;;17.70;23.24
13478;BME280;12598;62.382;17.344;2022-11-22T02:14:38;101302.53;;;17.65;23.24
13478;BME280;12598;62.382;17.344;2022-11-22T02:15:41;101317.09;;;17.72;23.15
13478;BME280;12598;62.382;17.344;2022-11-22T02:16:44;101313.84;;;17.68;23.18
13478;BME280;12598;62.382;17.344;2022-11-22T02:17:48;101316.25;;;17.71;22.81
13478;BME280;12598;62.382;17.344;2022-11-22T02:18:50;101319.91;;;17.70;23.16
13478;BME280;12598;62.382;17.344;2022-11-22T02:19:52;101311.44;;;17.65;23.15
13478;BME280;12598;62.382;17.344;2022-11-22T02:20:54;101316.41;;;17.70;23.19
13478;BME280;12598;62.382;17.344;2022-11-22T02:22:00;101311.16;;;17.68;23.19
13478;BME280;12598;62.382;17.344;2022-11-22T02:24:33;101301.19;;;17.70;23.11
13478;BME280;12598;62.382;17.344;2022-11-22T02:26:41;101291.84;;;17.65;22.90
13478;BME280;12598;62.382;17.344;2022-11-22T02:27:43;101318.91;;;17.71;22.83
13478;BME280;12598;62.382;17.344;2022-11-22T02:28:45;101311.03;;;17.70;23.16
13478;BME280;12598;62.382;17.344;2022-11-22T02:29:46;101322.56;;;17.70;22.87
13478;BME280;12598;62.382;17.344;2022-11-22T02:30:48;101321.75;;;17.70;23.17
13478;BME280;12598;62.382;17.344;2022-11-22T02:31:50;101321.75;;;17.70;23.23
13478;BME280;12598;62.382;17.344;2022-11-22T02:32:52;101316.50;;;17.68;23.00
13478;BME280;12598;62.382;17.344;2022-11-22T02:33:53;101323.69;;;17.68;23.20
13478;BME280;12598;62.382;17.344;2022-11-22T02:36:16;101307.19;;;17.63;23.05
13478;BME280;12598;62.382;17.344;2022-11-22T02:37:22;101321.75;;;17.70;23.06
13478;BME280;12598;62.382;17.344;2022-11-22T02:38:29;101314.69;;;17.69;23.20
13478;BME280;12598;62.382;17.344;2022-11-22T02:39:33;101324.28;;;17.71;23.28
13478;BME280;12598;62.382;17.344;2022-11-22T02:41:17;101321.31;;;17.74;22.85
13478;BME280;12598;62.382;17.344;2022-11-22T02:42:17;101321.22;;;17.76;22.89
13478;BME280;12598;62.382;17.344;2022-11-22T02:43:21;101322.31;;;17.73;22.83
13478;BME280;12598;62.382;17.344;2022-11-22T02:44:24;101320.63;;;17.72;22.85
13478;BME280;12598;62.382;17.344;2022-11-22T02:45:26;101322.56;;;17.70;23.09
13478;BME280;12598;62.382;17.344;2022-11-22T02:46:28;101320.03;;;17.69;22.94
13478;BME280;12598;62.382;17.344;2022-11-22T02:47:30;101315.19;;;17.63;23.42
13478;BME280;12598;62.382;17.344;2022-11-22T02:48:32;101328.19;;;17.67;23.14
13478;BME280;12598;62.382;17.344;2022-11-22T02:49:34;101324.78;;;17.65;23.19
13478;BME280;12598;62.382;17.344;2022-11-22T02:50:35;101328.34;;;17.66;23.13
13478;BME280;12598;62.382;17.344;2022-11-22T02:51:37;101323.69;;;17.68;23.24
13478;BME280;12598;62.382;17.344;2022-11-22T02:52:39;101327.34;;;17.67;23.35
13478;BME280;12598;62.382;17.344;2022-11-22T02:53:46;101323.94;;;17.65;22.97
13478;BME280;12598;62.382;17.344;2022-11-22T02:54:48;101325.50;;;17.67;23.32
13478;BME280;12598;62.382;17.344;2022-11-22T02:55:50;101328.34;;;17.66;23.31
13478;BME280;12598;62.382;17.344;2022-11-22T02:56:52;101322.84;;;17.67;22.92
13478;BME280;12598;62.382;17.344;2022-11-22T02:57:54;101323.00;;;17.66;23.05
13478;BME280;12598;62.382;17.344;2022-11-22T02:58:56;101319.34;;;17.67;23.09
13478;BME280;12598;62.382;17.344;2022-11-22T02:59:57;101326.50;;;17.66;23.35
13478;BME280;12598;62.382;17.344;2022-11-22T03:00:59;101328.34;;;17.66;23.16
13478;BME280;12598;62.382;17.344;2022-11-22T03:02:01;101326.50;;;17.66;23.14
13478;BME280;12598;62.382;17.344;2022-11-22T03:03:04;101315.78;;;17.66;23.04
13478;BME280;12598;62.382;17.344;2022-11-22T03:04:06;101305.03;;;17.57;23.36
13478;BME280;12598;62.382;17.344;2022-11-22T03:05:08;101314.38;;;17.62;23.24
13478;BME280;12598;62.382;17.344;2022-11-22T03:06:10;101323.00;;;17.66;23.05
13478;BME280;12598;62.382;17.344;2022-11-22T03:07:12;101311.69;;;17.62;23.18
13478;BME280;12598;62.382;17.344;2022-11-22T03:08:13;101322.13;;;17.65;23.07
13478;BME280;12598;62.382;17.344;2022-11-22T03:09:15;101308.56;;;17.57;23.26
13478;BME280;12598;62.382;17.344;2022-11-22T03:10:17;101321.16;;;17.66;23.14
13478;BME280;12598;62.382;17.344;2022-11-22T03:11:19;101323.81;;;17.66;23.35
13478;BME280;12598;62.382;17.344;2022-11-22T03:12:20;101326.50;;;17.66;23.11
13478;BME280;12598;62.382;17.344;2022-11-22T03:13:22;101325.66;;;17.66;23.15
13478;BME280;12598;62.382;17.344;2022-11-22T03:14:24;101324.78;;;17.65;23.14
13478;BME280;12598;62.382;17.344;2022-11-22T03:15:26;101324.78;;;17.65;23.47
13478;BME280;12598;62.382;17.344;2022-11-22T03:16:27;101330.16;;;17.65;23.41
13478;BME280;12598;62.382;17.344;2022-11-22T03:17:31;101320.69;;;17.61;23.05
13478;BME280;12598;62.382;17.344;2022-11-22T03:18:34;101329.28;;;17.65;22.90
13478;BME280;12598;62.382;17.344;2022-11-22T03:19:35;101326.50;;;17.66;22.97
13478;BME280;12598;62.382;17.344;2022-11-22T03:20:37;101327.47;;;17.65;23.37
13478;BME280;12598;62.382;17.344;2022-11-22T03:21:40;101323.09;;;17.64;23.25
13478;BME280;12598;62.382;17.344;2022-11-22T03:22:42;101323.09;;;17.64;23.28
13478;BME280;12598;62.382;17.344;2022-11-22T03:23:44;101331.84;;;17.66;22.98
13478;BME280;12598;62.382;17.344;2022-11-22T03:24:45;101333.69;;;17.66;22.92
13478;BME280;12598;62.382;17.344;2022-11-22T03:25:47;101324.78;;;17.65;22.97
13478;BME280;12598;62.382;17.344;2022-11-22T03:26:49;101326.75;;;17.63;23.08
13478;BME280;12598;62.382;17.344;2022-11-22T03:27:51;101323.00;;;17.66;23.02
13478;BME280;12598;62.382;17.344;2022-11-22T03:28:53;101326.50;;;17.66;23.20
13478;BME280;12598;62.382;17.344;2022-11-22T03:29:54;101328.34;;;17.66;23.24
13478;BME280;12598;62.382;17.344;2022-11-22T03:30:56;101316.78;;;17.65;23.27
13478;BME280;12598;62.382;17.344;2022-11-22T03:31:58;101324.78;;;17.65;23.17
13478;BME280;12598;62.382;17.344;2022-11-22T03:33:00;101315.78;;;17.66;22.95
13478;BME280;12598;62.382;17.344;2022-11-22T03:34:01;101309.28;;;17.59;23.12
13478;BME280;12598;62.382;17.344;2022-11-22T03:35:03;101322.13;;;17.65;22.94
13478;BME280;12598;62.382;17.344;2022-11-22T03:36:05;101319.44;;;17.65;22.98
13478;BME280;12598;62.382;17.344;2022-11-22T03:37:07;101323.09;;;17.64;23.10
13478;BME280;12598;62.382;17.344;2022-11-22T03:38:09;101323.09;;;17.64;22.87
13478;BME280;12598;62.382;17.344;2022-11-22T03:39:10;101319.44;;;17.65;23.47
13478;BME280;12598;62.382;17.344;2022-11-22T03:40:12;101322.13;;;17.65;23.06
13478;BME280;12598;62.382;17.344;2022-11-22T03:41:14;101310.00;;;17.61;22.84
13478;BME280;12598;62.382;17.344;2022-11-22T03:42:16;101326.59;;;17.65;23.23
13478;BME280;12598;62.382;17.344;2022-11-22T03:43:22;101324.78;;;17.65;23.22
13478;BME280;12598;62.382;17.344;2022-11-22T03:44:24;101321.16;;;17.66;23.43
13478;BME280;12598;62.382;17.344;2022-11-22T03:45:29;101319.44;;;17.65;23.06
13478;BME280;12598;62.382;17.344;2022-11-22T03:46:31;101325.50;;;17.67;23.36
13478;BME280;12598;62.382;17.344;2022-11-22T03:47:33;101322.13;;;17.65;23.36
13478;BME280;12598;62.382;17.344;2022-11-22T03:48:35;101308.31;;;17.60;23.32
13478;BME280;12598;62.382;17.344;2022-11-22T03:49:37;101316.66;;;17.67;23.44
13478;BME280;12598;62.382;17.344;2022-11-22T03:50:39;101322.00;;;17.67;22.89
13478;BME280;12598;62.382;17.344;2022-11-22T03:51:41;101325.50;;;17.67;22.96
13478;BME280;12598;62.382;17.344;2022-11-22T03:52:42;101293.06;;;17.51;23.09
13478;BME280;12598;62.382;17.344;2022-11-22T03:53:44;101323.81;;;17.66;23.10
13478;BME280;12598;62.382;17.344;2022-11-22T03:54:46;101323.69;;;17.68;23.05
13478;BME280;12598;62.382;17.344;2022-11-22T03:55:48;101322.84;;;17.67;23.26
13478;BME280;12598;62.382;17.344;2022-11-22T03:56:49;101332.72;;;17.67;22.91
13478;BME280;12598;62.382;17.344;2022-11-22T03:57:51;101324.53;;;17.68;23.23
13478;BME280;12598;62.382;17.344;2022-11-22T03:58:53;101328.19;;;17.67;23.05
13478;BME280;12598;62.382;17.344;2022-11-22T03:59:55;101329.06;;;17.68;23.58
13478;BME280;12598;62.382;17.344;2022-11-22T04:00:57;101325.50;;;17.67;23.38
13478;BME280;12598;62.382;17.344;2022-11-22T04:01:58;101325.50;;;17.67;23.15
13478;BME280;12598;62.382;17.344;2022-11-22T04:03:00;101326.38;;;17.68;23.29
13478;BME280;12598;62.382;17.344;2022-11-22T04:04:02;101334.25;;;17.69;23.25
13478;BME280;12598;62.382;17.344;2022-11-22T04:05:05;101333.53;;;17.67;23.23
13478;BME280;12598;62.382;17.344;2022-11-22T04:06:06;101327.22;;;17.68;23.59
13478;BME280;12598;62.382;17.344;2022-11-22T04:07:08;101328.19;;;17.67;23.41
13478;BME280;12598;62.382;17.344;2022-11-22T04:08:10;101307.84;;;17.55;23.36
13478;BME280;12598;62.382;17.344;2022-11-22T04:09:12;101329.16;;;17.66;23.16
13478;BME280;12598;62.382;17.344;2022-11-22T04:10:14;101330.03;;;17.67;23.03
13478;BME280;12598;62.382;17.344;2022-11-22T04:11:22;101326.22;;;17.69;23.11
13478;BME280;12598;62.382;17.344;2022-11-22T04:12:24;101323.81;;;17.66;23.02
13478;BME280;12598;62.382;17.344;2022-11-22T04:13:25;101329.88;;;17.68;23.09
13478;BME280;12598;62.382;17.344;2022-11-22T04:14:47;101336.53;;;17.74;23.28
13478;BME280;12598;62.382;17.344;2022-11-22T04:16:07;101326.56;;;17.76;22.99
13478;BME280;12598;62.382;17.344;2022-11-22T04:17:12;101330.47;;;17.72;23.49
13478;BME280;12598;62.382;17.344;2022-11-22T04:18:14;101324.41;;;17.70;22.96
13478;BME280;12598;62.382;17.344;2022-11-22T04:19:16;101332.56;;;17.68;22.87
13478;BME280;12598;62.382;17.344;2022-11-22T04:20:22;101338.78;;;17.69;23.08
13478;BME280;12598;62.382;17.344;2022-11-22T04:21:43;101306.34;;;17.62;23.28
13478;BME280;12598;62.382;17.344;2022-11-22T04:22:54;101331.31;;;17.72;23.06
13478;BME280;12598;62.382;17.344;2022-11-22T04:23:55;101334.97;;;17.71;23.25
13478;BME280;12598;62.382;17.344;2022-11-22T04:25:16;101328.53;;;17.74;22.82
13478;BME280;12598;62.382;17.344;2022-11-22T04:26:17;101328.78;;;17.71;23.33
13478;BME280;12598;62.382;17.344;2022-11-22T04:27:19;101332.44;;;17.70;23.03
13478;BME280;12598;62.382;17.344;2022-11-22T04:28:23;101328.19;;;17.67;23.46
13478;BME280;12598;62.382;17.344;2022-11-22T04:29:45;101324.00;;;17.74;23.27
13478;BME280;12598;62.382;17.344;2022-11-22T04:30:47;101323.28;;;17.72;22.97
13478;BME280;12598;62.382;17.344;2022-11-22T04:32:07;101331.03;;;17.75;23.15
13478;BME280;12598;62.382;17.344;2022-11-22T04:33:28;101327.41;;;17.76;23.34
13478;BME280;12598;62.382;17.344;2022-11-22T04:34:30;101318.34;;;17.68;23.15
13478;BME280;12598;62.382;17.344;2022-11-22T04:35:32;101317.50;;;17.67;23.31
13478;BME280;12598;62.382;17.344;2022-11-22T04:36:33;101319.19;;;17.68;23.14
13478;BME280;12598;62.382;17.344;2022-11-22T04:37:35;101327.22;;;17.68;23.00
13478;BME280;12598;62.382;17.344;2022-11-22T04:38:37;101322.84;;;17.67;22.93
13478;BME280;12598;62.382;17.344;2022-11-22T04:39:39;101321.16;;;17.66;23.33
13478;BME280;12598;62.382;17.344;2022-11-22T04:40:40;101322.00;;;17.67;23.37
13478;BME280;12598;62.382;17.344;2022-11-22T04:41:42;101321.16;;;17.66;23.30
13478;BME280;12598;62.382;17.344;2022-11-22T04:42:44;101317.63;;;17.66;22.95
13478;BME280;12598;62.382;17.344;2022-11-22T04:44:04;101311.44;;;17.65;23.00
13478;BME280;12598;62.382;17.344;2022-11-22T04:45:25;101327.66;;;17.73;22.96
13478;BME280;12598;62.382;17.344;2022-11-22T04:46:26;101321.59;;;17.71;23.06
13478;BME280;12598;62.382;17.344;2022-11-22T04:47:28;101320.31;;;17.66;23.04
13478;BME280;12598;62.382;17.344;2022-11-22T04:48:51;101322.31;;;17.73;23.19
13478;BME280;12598;62.382;17.344;2022-11-22T04:49:52;101325.25;;;17.70;23.26
13478;BME280;12598;62.382;17.344;2022-11-22T04:50:54;101321.84;;;17.68;23.53
13478;BME280;12598;62.382;17.344;2022-11-22T04:52:14;101322.56;;;17.70;23.51
13478;BME280;12598;62.382;17.344;2022-11-22T04:53:39;101315.97;;;17.74;23.21
13478;BME280;12598;62.382;17.344;2022-11-22T04:54:41;101317.22;;;17.70;23.19
13478;BME280;12598;62.382;17.344;2022-11-22T04:55:44;101321.03;;;17.68;23.64
13478;BME280;12598;62.382;17.344;2022-11-22T04:56:47;101310.44;;;17.66;23.74
13478;BME280;12598;62.382;17.344;2022-11-22T04:57:48;101319.44;;;17.65;23.56
13478;BME280;12598;62.382;17.344;2022-11-22T04:58:58;101318.34;;;17.68;23.60
13478;BME280;12598;62.382;17.344;2022-11-22T04:59:59;101305.75;;;17.59;23.48
13478;BME280;12598;62.382;17.344;2022-11-22T05:01:01;101321.16;;;17.66;23.51
13478;BME280;12598;62.382;17.344;2022-11-22T05:02:03;101317.75;;;17.64;23.77
13478;BME280;12598;62.382;17.344;2022-11-22T05:03:05;101320.53;;;17.63;23.57
13478;BME280;12598;62.382;17.344;2022-11-22T05:04:07;101315.09;;;17.64;23.89
13478;BME280;12598;62.382;17.344;2022-11-22T05:05:09;101316.78;;;17.65;23.70
13478;BME280;12598;62.382;17.344;2022-11-22T05:06:12;101319.56;;;17.64;23.81
13478;BME280;12598;62.382;17.344;2022-11-22T05:07:15;101323.09;;;17.64;23.79
13478;BME280;12598;62.382;17.344;2022-11-22T05:08:17;101320.44;;;17.64;23.58
13478;BME280;12598;62.382;17.344;2022-11-22T05:09:18;101318.72;;;17.63;23.68
13478;BME280;12598;62.382;17.344;2022-11-22T05:10:20;101323.09;;;17.64;23.63
13478;BME280;12598;62.382;17.344;2022-11-22T05:11:27;101319.44;;;17.65;23.87
13478;BME280;12598;62.382;17.344;2022-11-22T05:12:28;101315.09;;;17.64;23.75
13478;BME280;12598;62.382;17.344;2022-11-22T05:13:35;101317.75;;;17.64;23.62
13478;BME280;12598;62.382;17.344;2022-11-22T05:14:37;101309.03;;;17.62;23.78
13478;BME280;12598;62.382;17.344;2022-11-22T05:15:39;101315.78;;;17.66;23.86
13478;BME280;12598;62.382;17.344;2022-11-22T05:16:41;101318.59;;;17.65;23.83
13478;BME280;12598;62.382;17.344;2022-11-22T05:17:42;101308.69;;;17.56;23.98
13478;BME280;12598;62.382;17.344;2022-11-22T05:18:44;101313.38;;;17.63;23.47
13478;BME280;12598;62.382;17.344;2022-11-22T05:19:59;101317.50;;;17.67;23.44
13478;BME280;12598;62.382;17.344;2022-11-22T05:21:09;101318.47;;;17.66;23.58
13478;BME280;12598;62.382;17.344;2022-11-22T05:22:11;101314.09;;;17.65;23.48
13478;BME280;12598;62.382;17.344;2022-11-22T05:23:14;101321.16;;;17.66;23.63
13478;BME280;12598;62.382;17.344;2022-11-22T05:24:34;101319.06;;;17.70;23.71
13478;BME280;12598;62.382;17.344;2022-11-22T05:25:36;101320.16;;;17.67;23.91
13478;BME280;12598;62.382;17.344;2022-11-22T05:26:38;101319.44;;;17.65;23.74
13478;BME280;12598;62.382;17.344;2022-11-22T05:27:39;101325.66;;;17.66;24.02
13478;BME280;12598;62.382;17.344;2022-11-22T05:28:41;101319.44;;;17.65;23.64
13478;BME280;12598;62.382;17.344;2022-11-22T05:29:43;101328.44;;;17.64;24.02
13478;BME280;12598;62.382;17.344;2022-11-22T05:30:45;101336.47;;;17.64;24.02
13478;BME280;12598;62.382;17.344;2022-11-22T05:31:46;101327.59;;;17.64;23.97
13478;BME280;12598;62.382;17.344;2022-11-22T05:32:53;101322.25;;;17.64;23.99
13478;BME280;12598;62.382;17.344;2022-11-22T05:33:56;101330.25;;;17.64;23.77